sensor_id;sensor_type;location;lat;lon;timestamp;temperature;humidity
22738;DHT22;11536;50.860;4.286;2022-08-21T00:00:37;18.80;97.60
22738;DHT22;11536;50.860;4.286;2022-08-21T00:03:05;18.80;97.60
22738;DHT22;11536;50.860;4.286;2022-08-21T00:05:33;18.70;97.60
22738;DHT22;11536;50.860;4.286;2022-08-21T00:07:59;18.70;97.60
22738;DHT22;11536;50.860;4.286;2022-08-21T00:10:25;18.70;97.70
22738;DHT22;11536;50.860;4.286;2022-08-21T00:12:51;18.70;97.70
22738;DHT22;11536;50.860;4.286;2022-08-21T00:15:20;18.70;97.70
22738;DHT22;11536;50.860;4.286;2022-08-21T00:17:47;18.70;97.70
22738;DHT22;11536;50.860;4.286;2022-08-21T00:20:14;18.60;97.70
22738;DHT22;11536;50.860;4.286;2022-08-21T00:22:41;18.60;97.80
22738;DHT22;11536;50.860;4.286;2022-08-21T00:25:08;18.60;97.80
22738;DHT22;11536;50.860;4.286;2022-08-21T00:27:34;18.60;97.80
22738;DHT22;11536;50.860;4.286;2022-08-21T00:29:59;18.50;97.80
22738;DHT22;11536;50.860;4.286;2022-08-21T00:32:27;18.60;97.90
22738;DHT22;11536;50.860;4.286;2022-08-21T00:34:53;18.50;97.90
22738;DHT22;11536;50.860;4.286;2022-08-21T00:37:19;18.50;98.00
22738;DHT22;11536;50.860;4.286;2022-08-21T00:39:45;18.50;97.90
22738;DHT22;11536;50.860;4.286;2022-08-21T00:42:12;18.50;98.00
22738;DHT22;11536;50.860;4.286;2022-08-21T00:44:45;18.50;98.00
22738;DHT22;11536;50.860;4.286;2022-08-21T00:47:12;18.50;98.40
22738;DHT22;11536;50.860;4.286;2022-08-21T00:49:38;18.40;98.00
22738;DHT22;11536;50.860;4.286;2022-08-21T00:52:07;18.40;98.00
22738;DHT22;11536;50.860;4.286;2022-08-21T00:54:34;18.40;98.10
22738;DHT22;11536;50.860;4.286;2022-08-21T00:57:10;18.40;98.10
22738;DHT22;11536;50.860;4.286;2022-08-21T00:59:38;18.40;98.10
22738;DHT22;11536;50.860;4.286;2022-08-21T01:02:07;18.40;98.20
22738;DHT22;11536;50.860;4.286;2022-08-21T01:04:33;18.30;98.20
22738;DHT22;11536;50.860;4.286;2022-08-21T01:06:59;18.30;98.10
22738;DHT22;11536;50.860;4.286;2022-08-21T01:09:25;18.30;98.20
22738;DHT22;11536;50.860;4.286;2022-08-21T01:11:51;18.30;98.20
22738;DHT22;11536;50.860;4.286;2022-08-21T01:14:17;18.30;98.30
22738;DHT22;11536;50.860;4.286;2022-08-21T01:16:46;18.30;98.30
22738;DHT22;11536;50.860;4.286;2022-08-21T01:19:14;18.30;98.30
22738;DHT22;11536;50.860;4.286;2022-08-21T01:21:42;18.20;98.40
22738;DHT22;11536;50.860;4.286;2022-08-21T01:24:08;18.20;98.40
22738;DHT22;11536;50.860;4.286;2022-08-21T01:26:35;18.20;98.40
22738;DHT22;11536;50.860;4.286;2022-08-21T01:29:23;18.20;98.40
22738;DHT22;11536;50.860;4.286;2022-08-21T01:31:49;18.20;98.20
22738;DHT22;11536;50.860;4.286;2022-08-21T01:34:15;18.10;98.50
22738;DHT22;11536;50.860;4.286;2022-08-21T01:36:42;18.10;98.50
22738;DHT22;11536;50.860;4.286;2022-08-21T01:39:08;18.10;98.50
22738;DHT22;11536;50.860;4.286;2022-08-21T01:41:34;18.10;98.50
22738;DHT22;11536;50.860;4.286;2022-08-21T01:44:00;18.10;98.60
22738;DHT22;11536;50.860;4.286;2022-08-21T01:46:26;18.10;98.60
22738;DHT22;11536;50.860;4.286;2022-08-21T01:48:51;18.00;98.50
22738;DHT22;11536;50.860;4.286;2022-08-21T01:51:17;18.00;98.60
22738;DHT22;11536;50.860;4.286;2022-08-21T01:53:43;18.00;98.70
22738;DHT22;11536;50.860;4.286;2022-08-21T01:56:11;17.90;98.70
22738;DHT22;11536;50.860;4.286;2022-08-21T01:58:38;18.00;98.70
22738;DHT22;11536;50.860;4.286;2022-08-21T02:01:04;17.90;98.70
22738;DHT22;11536;50.860;4.286;2022-08-21T02:03:30;17.90;98.70
22738;DHT22;11536;50.860;4.286;2022-08-21T02:05:55;17.90;98.70
22738;DHT22;11536;50.860;4.286;2022-08-21T02:08:22;17.80;98.80
22738;DHT22;11536;50.860;4.286;2022-08-21T02:10:49;17.80;98.80
22738;DHT22;11536;50.860;4.286;2022-08-21T02:13:16;17.80;98.90
22738;DHT22;11536;50.860;4.286;2022-08-21T02:15:42;17.70;98.90
22738;DHT22;11536;50.860;4.286;2022-08-21T02:18:08;17.70;98.90
22738;DHT22;11536;50.860;4.286;2022-08-21T02:20:37;17.70;98.90
22738;DHT22;11536;50.860;4.286;2022-08-21T02:23:06;17.70;99.00
22738;DHT22;11536;50.860;4.286;2022-08-21T02:25:32;17.60;99.00
22738;DHT22;11536;50.860;4.286;2022-08-21T02:27:59;17.70;99.00
22738;DHT22;11536;50.860;4.286;2022-08-21T02:30:29;17.70;99.10
22738;DHT22;11536;50.860;4.286;2022-08-21T02:32:57;17.70;99.00
22738;DHT22;11536;50.860;4.286;2022-08-21T02:35:23;17.60;99.00
22738;DHT22;11536;50.860;4.286;2022-08-21T02:37:58;17.60;99.10
22738;DHT22;11536;50.860;4.286;2022-08-21T02:40:27;17.60;99.10
22738;DHT22;11536;50.860;4.286;2022-08-21T02:42:54;17.60;99.20
22738;DHT22;11536;50.860;4.286;2022-08-21T02:45:20;17.50;99.10
22738;DHT22;11536;50.860;4.286;2022-08-21T02:47:53;17.60;99.10
22738;DHT22;11536;50.860;4.286;2022-08-21T02:50:25;17.60;99.20
22738;DHT22;11536;50.860;4.286;2022-08-21T02:52:51;17.50;99.10
22738;DHT22;11536;50.860;4.286;2022-08-21T02:55:19;17.50;99.10
22738;DHT22;11536;50.860;4.286;2022-08-21T02:57:46;17.50;99.20
22738;DHT22;11536;50.860;4.286;2022-08-21T03:00:12;17.40;99.20
22738;DHT22;11536;50.860;4.286;2022-08-21T03:02:39;17.40;99.20
22738;DHT22;11536;50.860;4.286;2022-08-21T03:05:07;17.30;99.30
22738;DHT22;11536;50.860;4.286;2022-08-21T03:07:33;17.30;99.40
22738;DHT22;11536;50.860;4.286;2022-08-21T03:10:00;17.30;99.40
22738;DHT22;11536;50.860;4.286;2022-08-21T03:12:26;17.30;99.40
22738;DHT22;11536;50.860;4.286;2022-08-21T03:14:51;17.30;99.40
22738;DHT22;11536;50.860;4.286;2022-08-21T03:17:17;17.20;99.40
22738;DHT22;11536;50.860;4.286;2022-08-21T03:19:43;17.20;99.50
22738;DHT22;11536;50.860;4.286;2022-08-21T03:22:08;17.20;99.60
22738;DHT22;11536;50.860;4.286;2022-08-21T03:24:34;17.20;99.60
22738;DHT22;11536;50.860;4.286;2022-08-21T03:26:59;17.20;99.60
22738;DHT22;11536;50.860;4.286;2022-08-21T03:29:25;17.20;99.60
22738;DHT22;11536;50.860;4.286;2022-08-21T03:31:51;17.20;99.70
22738;DHT22;11536;50.860;4.286;2022-08-21T03:34:20;17.20;99.70
22738;DHT22;11536;50.860;4.286;2022-08-21T03:36:45;17.20;99.70
22738;DHT22;11536;50.860;4.286;2022-08-21T03:39:11;17.10;99.70
22738;DHT22;11536;50.860;4.286;2022-08-21T03:41:37;17.10;99.70
22738;DHT22;11536;50.860;4.286;2022-08-21T03:44:02;17.10;99.70
22738;DHT22;11536;50.860;4.286;2022-08-21T03:46:28;17.10;99.80
22738;DHT22;11536;50.860;4.286;2022-08-21T03:48:54;17.10;99.80
22738;DHT22;11536;50.860;4.286;2022-08-21T03:51:21;17.10;99.80
22738;DHT22;11536;50.860;4.286;2022-08-21T03:53:46;17.10;99.90
22738;DHT22;11536;50.860;4.286;2022-08-21T03:56:12;17.10;99.90
22738;DHT22;11536;50.860;4.286;2022-08-21T03:58:37;17.10;99.90
22738;DHT22;11536;50.860;4.286;2022-08-21T04:01:04;17.00;99.90
22738;DHT22;11536;50.860;4.286;2022-08-21T04:03:32;17.00;99.90
22738;DHT22;11536;50.860;4.286;2022-08-21T04:05:59;17.00;99.90
22738;DHT22;11536;50.860;4.286;2022-08-21T04:08:25;17.00;99.90
22738;DHT22;11536;50.860;4.286;2022-08-21T04:10:53;17.10;99.90
22738;DHT22;11536;50.860;4.286;2022-08-21T04:13:20;17.00;99.90
22738;DHT22;11536;50.860;4.286;2022-08-21T04:15:46;17.00;99.90
22738;DHT22;11536;50.860;4.286;2022-08-21T04:18:12;16.90;99.90
22738;DHT22;11536;50.860;4.286;2022-08-21T04:20:39;16.90;99.90
22738;DHT22;11536;50.860;4.286;2022-08-21T04:23:06;16.90;99.90
22738;DHT22;11536;50.860;4.286;2022-08-21T04:25:31;16.90;99.90
22738;DHT22;11536;50.860;4.286;2022-08-21T04:27:57;16.90;99.90
22738;DHT22;11536;50.860;4.286;2022-08-21T04:30:23;16.90;99.90
22738;DHT22;11536;50.860;4.286;2022-08-21T04:32:50;17.00;99.90
22738;DHT22;11536;50.860;4.286;2022-08-21T04:35:19;17.00;99.90
22738;DHT22;11536;50.860;4.286;2022-08-21T04:37:44;17.00;99.90
22738;DHT22;11536;50.860;4.286;2022-08-21T04:40:13;17.00;99.90
22738;DHT22;11536;50.860;4.286;2022-08-21T04:42:57;17.00;99.90
22738;DHT22;11536;50.860;4.286;2022-08-21T04:45:36;17.00;99.90
22738;DHT22;11536;50.860;4.286;2022-08-21T04:48:05;17.00;99.90
22738;DHT22;11536;50.860;4.286;2022-08-21T04:50:59;17.00;99.90
22738;DHT22;11536;50.860;4.286;2022-08-21T04:53:31;16.90;99.90
22738;DHT22;11536;50.860;4.286;2022-08-21T04:56:02;17.00;99.90
22738;DHT22;11536;50.860;4.286;2022-08-21T04:58:30;16.90;99.90
22738;DHT22;11536;50.860;4.286;2022-08-21T05:01:00;16.90;99.90
22738;DHT22;11536;50.860;4.286;2022-08-21T05:03:26;17.00;99.90
22738;DHT22;11536;50.860;4.286;2022-08-21T05:05:52;16.90;99.90
22738;DHT22;11536;50.860;4.286;2022-08-21T05:08:19;16.90;99.90
22738;DHT22;11536;50.860;4.286;2022-08-21T05:10:47;16.90;99.90
22738;DHT22;11536;50.860;4.286;2022-08-21T05:13:13;16.90;99.90
22738;DHT22;11536;50.860;4.286;2022-08-21T05:15:39;16.90;99.90
22738;DHT22;11536;50.860;4.286;2022-08-21T05:18:05;16.90;99.90
22738;DHT22;11536;50.860;4.286;2022-08-21T05:20:32;16.90;99.90
22738;DHT22;11536;50.860;4.286;2022-08-21T05:22:59;16.80;99.90
22738;DHT22;11536;50.860;4.286;2022-08-21T05:25:25;16.80;99.90
22738;DHT22;11536;50.860;4.286;2022-08-21T05:27:51;16.90;99.90
22738;DHT22;11536;50.860;4.286;2022-08-21T05:30:16;16.90;99.90
22738;DHT22;11536;50.860;4.286;2022-08-21T05:32:42;16.90;99.90
22738;DHT22;11536;50.860;4.286;2022-08-21T05:35:08;16.90;99.90
22738;DHT22;11536;50.860;4.286;2022-08-21T05:37:34;17.00;99.90
22738;DHT22;11536;50.860;4.286;2022-08-21T05:40:00;17.00;99.90
22738;DHT22;11536;50.860;4.286;2022-08-21T05:42:26;17.00;99.90
22738;DHT22;11536;50.860;4.286;2022-08-21T05:44:53;17.00;99.90
22738;DHT22;11536;50.860;4.286;2022-08-21T05:47:18;17.00;99.90
22738;DHT22;11536;50.860;4.286;2022-08-21T05:49:44;17.10;99.90
22738;DHT22;11536;50.860;4.286;2022-08-21T05:52:09;17.00;99.90
22738;DHT22;11536;50.860;4.286;2022-08-21T05:54:36;17.10;99.90
22738;DHT22;11536;50.860;4.286;2022-08-21T05:57:02;17.10;99.90
22738;DHT22;11536;50.860;4.286;2022-08-21T05:59:28;17.10;99.90
22738;DHT22;11536;50.860;4.286;2022-08-21T06:01:54;17.20;99.90
22738;DHT22;11536;50.860;4.286;2022-08-21T06:04:19;17.20;99.90
22738;DHT22;11536;50.860;4.286;2022-08-21T06:06:45;17.20;99.90
22738;DHT22;11536;50.860;4.286;2022-08-21T06:09:11;17.30;99.90
22738;DHT22;11536;50.860;4.286;2022-08-21T06:11:37;17.30;99.90
22738;DHT22;11536;50.860;4.286;2022-08-21T06:14:02;17.30;99.90
22738;DHT22;11536;50.860;4.286;2022-08-21T06:16:28;17.30;99.90
22738;DHT22;11536;50.860;4.286;2022-08-21T06:18:54;17.40;99.90
22738;DHT22;11536;50.860;4.286;2022-08-21T06:21:19;17.40;99.90
22738;DHT22;11536;50.860;4.286;2022-08-21T06:23:45;17.40;99.90
22738;DHT22;11536;50.860;4.286;2022-08-21T06:26:12;17.50;99.90
22738;DHT22;11536;50.860;4.286;2022-08-21T06:28:39;17.50;99.90
22738;DHT22;11536;50.860;4.286;2022-08-21T06:31:18;17.50;99.90
22738;DHT22;11536;50.860;4.286;2022-08-21T06:33:44;17.50;99.90
22738;DHT22;11536;50.860;4.286;2022-08-21T06:36:10;17.60;99.90
22738;DHT22;11536;50.860;4.286;2022-08-21T06:38:36;17.60;99.90
22738;DHT22;11536;50.860;4.286;2022-08-21T06:41:03;17.60;99.90
22738;DHT22;11536;50.860;4.286;2022-08-21T06:43:29;17.70;99.90
22738;DHT22;11536;50.860;4.286;2022-08-21T06:45:55;17.70;99.90
22738;DHT22;11536;50.860;4.286;2022-08-21T06:48:21;17.80;99.90
22738;DHT22;11536;50.860;4.286;2022-08-21T06:50:47;17.80;99.90
22738;DHT22;11536;50.860;4.286;2022-08-21T06:53:16;17.90;99.90
22738;DHT22;11536;50.860;4.286;2022-08-21T06:55:45;18.00;99.90
22738;DHT22;11536;50.860;4.286;2022-08-21T06:58:15;18.00;99.90
22738;DHT22;11536;50.860;4.286;2022-08-21T07:00:45;18.10;99.90
22738;DHT22;11536;50.860;4.286;2022-08-21T07:03:40;18.20;99.90
22738;DHT22;11536;50.860;4.286;2022-08-21T07:06:08;18.20;99.90
22738;DHT22;11536;50.860;4.286;2022-08-21T07:08:34;18.20;99.90
22738;DHT22;11536;50.860;4.286;2022-08-21T07:11:02;18.30;99.90
22738;DHT22;11536;50.860;4.286;2022-08-21T07:13:28;18.40;99.90
22738;DHT22;11536;50.860;4.286;2022-08-21T07:15:54;18.40;99.90
22738;DHT22;11536;50.860;4.286;2022-08-21T07:18:20;18.50;99.90
22738;DHT22;11536;50.860;4.286;2022-08-21T07:20:46;18.50;99.90
22738;DHT22;11536;50.860;4.286;2022-08-21T07:23:22;18.60;99.90
22738;DHT22;11536;50.860;4.286;2022-08-21T07:25:49;18.70;99.90
22738;DHT22;11536;50.860;4.286;2022-08-21T07:28:14;18.80;99.90
22738;DHT22;11536;50.860;4.286;2022-08-21T07:30:40;18.80;99.90
22738;DHT22;11536;50.860;4.286;2022-08-21T07:33:06;18.80;99.90
22738;DHT22;11536;50.860;4.286;2022-08-21T07:35:32;18.90;99.90
22738;DHT22;11536;50.860;4.286;2022-08-21T07:37:58;18.90;99.90
22738;DHT22;11536;50.860;4.286;2022-08-21T07:40:24;19.00;99.90
22738;DHT22;11536;50.860;4.286;2022-08-21T07:42:50;19.00;99.90
22738;DHT22;11536;50.860;4.286;2022-08-21T07:45:21;19.10;99.90
22738;DHT22;11536;50.860;4.286;2022-08-21T07:47:48;19.20;99.90
22738;DHT22;11536;50.860;4.286;2022-08-21T07:50:14;19.30;99.90
22738;DHT22;11536;50.860;4.286;2022-08-21T07:52:41;19.30;99.90
22738;DHT22;11536;50.860;4.286;2022-08-21T07:55:09;19.40;99.90
22738;DHT22;11536;50.860;4.286;2022-08-21T07:57:37;19.40;99.90
22738;DHT22;11536;50.860;4.286;2022-08-21T08:00:12;19.50;99.90
22738;DHT22;11536;50.860;4.286;2022-08-21T08:02:38;19.60;99.90
22738;DHT22;11536;50.860;4.286;2022-08-21T08:05:06;19.60;99.90
22738;DHT22;11536;50.860;4.286;2022-08-21T08:07:32;19.70;99.90
22738;DHT22;11536;50.860;4.286;2022-08-21T08:10:00;19.70;99.90
22738;DHT22;11536;50.860;4.286;2022-08-21T08:12:25;19.70;99.90
22738;DHT22;11536;50.860;4.286;2022-08-21T08:14:58;19.80;99.90
22738;DHT22;11536;50.860;4.286;2022-08-21T08:17:24;19.80;99.90
22738;DHT22;11536;50.860;4.286;2022-08-21T08:19:50;19.90;99.90
22738;DHT22;11536;50.860;4.286;2022-08-21T08:22:19;19.90;99.90
22738;DHT22;11536;50.860;4.286;2022-08-21T08:24:46;19.90;99.90
22738;DHT22;11536;50.860;4.286;2022-08-21T08:27:12;19.90;99.90
22738;DHT22;11536;50.860;4.286;2022-08-21T08:29:37;20.00;99.90
22738;DHT22;11536;50.860;4.286;2022-08-21T08:32:04;20.10;99.90
22738;DHT22;11536;50.860;4.286;2022-08-21T08:34:30;20.10;99.90
22738;DHT22;11536;50.860;4.286;2022-08-21T08:36:56;20.20;99.90
22738;DHT22;11536;50.860;4.286;2022-08-21T08:39:25;20.20;99.90
22738;DHT22;11536;50.860;4.286;2022-08-21T08:42:03;20.30;99.90
22738;DHT22;11536;50.860;4.286;2022-08-21T08:44:30;20.30;99.90
22738;DHT22;11536;50.860;4.286;2022-08-21T08:46:56;20.40;99.90
22738;DHT22;11536;50.860;4.286;2022-08-21T08:49:29;20.50;99.90
22738;DHT22;11536;50.860;4.286;2022-08-21T08:52:33;20.50;99.90
22738;DHT22;11536;50.860;4.286;2022-08-21T08:58:02;20.60;99.90
22738;DHT22;11536;50.860;4.286;2022-08-21T09:00:29;20.60;99.90
22738;DHT22;11536;50.860;4.286;2022-08-21T09:02:58;20.60;99.90
22738;DHT22;11536;50.860;4.286;2022-08-21T09:29:27;21.10;99.90
22738;DHT22;11536;50.860;4.286;2022-08-21T09:31:55;21.10;99.90
22738;DHT22;11536;50.860;4.286;2022-08-21T09:34:29;21.20;99.90
22738;DHT22;11536;50.860;4.286;2022-08-21T09:36:57;21.30;99.90
22738;DHT22;11536;50.860;4.286;2022-08-21T09:39:28;21.40;99.90
22738;DHT22;11536;50.860;4.286;2022-08-21T09:42:04;21.40;99.90
22738;DHT22;11536;50.860;4.286;2022-08-21T09:44:32;21.50;99.90
22738;DHT22;11536;50.860;4.286;2022-08-21T09:46:58;21.50;99.90
22738;DHT22;11536;50.860;4.286;2022-08-21T09:49:33;21.50;99.90
22738;DHT22;11536;50.860;4.286;2022-08-21T09:52:01;21.60;99.90
22738;DHT22;11536;50.860;4.286;2022-08-21T09:54:34;21.60;99.90
22738;DHT22;11536;50.860;4.286;2022-08-21T09:57:24;21.60;99.90
22738;DHT22;11536;50.860;4.286;2022-08-21T10:02:36;21.50;99.90
22738;DHT22;11536;50.860;4.286;2022-08-21T10:05:22;21.60;99.90
22738;DHT22;11536;50.860;4.286;2022-08-21T10:07:49;21.50;99.90
22738;DHT22;11536;50.860;4.286;2022-08-21T10:10:21;21.60;99.90
22738;DHT22;11536;50.860;4.286;2022-08-21T10:13:13;21.60;99.90
22738;DHT22;11536;50.860;4.286;2022-08-21T10:16:02;21.60;99.90
22738;DHT22;11536;50.860;4.286;2022-08-21T10:18:42;21.60;99.90
22738;DHT22;11536;50.860;4.286;2022-08-21T10:21:23;21.70;99.90
22738;DHT22;11536;50.860;4.286;2022-08-21T10:24:00;21.70;99.90
22738;DHT22;11536;50.860;4.286;2022-08-21T10:32:15;21.80;99.90
22738;DHT22;11536;50.860;4.286;2022-08-21T10:34:44;21.90;99.90
22738;DHT22;11536;50.860;4.286;2022-08-21T10:37:40;21.80;99.90
22738;DHT22;11536;50.860;4.286;2022-08-21T10:40:25;21.80;99.90
22738;DHT22;11536;50.860;4.286;2022-08-21T10:45:48;21.90;99.90
22738;DHT22;11536;50.860;4.286;2022-08-21T10:56:28;22.10;99.90
22738;DHT22;11536;50.860;4.286;2022-08-21T11:06:47;22.20;99.90
22738;DHT22;11536;50.860;4.286;2022-08-21T11:09:18;22.20;99.90
22738;DHT22;11536;50.860;4.286;2022-08-21T11:11:54;22.30;99.90
22738;DHT22;11536;50.860;4.286;2022-08-21T11:14:39;22.40;99.90
22738;DHT22;11536;50.860;4.286;2022-08-21T11:17:09;22.40;99.90
22738;DHT22;11536;50.860;4.286;2022-08-21T11:19:53;22.40;99.90
22738;DHT22;11536;50.860;4.286;2022-08-21T11:22:31;22.50;99.90
22738;DHT22;11536;50.860;4.286;2022-08-21T11:27:59;22.40;99.90
22738;DHT22;11536;50.860;4.286;2022-08-21T11:30:33;22.40;99.90
22738;DHT22;11536;50.860;4.286;2022-08-21T11:33:30;22.50;99.90
22738;DHT22;11536;50.860;4.286;2022-08-21T11:36:07;22.50;99.90
22738;DHT22;11536;50.860;4.286;2022-08-21T11:38:42;22.60;99.90
22738;DHT22;11536;50.860;4.286;2022-08-21T11:41:30;22.60;99.90
22738;DHT22;11536;50.860;4.286;2022-08-21T11:50:14;22.70;99.90
22738;DHT22;11536;50.860;4.286;2022-08-21T11:53:07;22.70;99.90
22738;DHT22;11536;50.860;4.286;2022-08-21T11:58:48;22.80;99.90
22738;DHT22;11536;50.860;4.286;2022-08-21T12:01:23;22.90;99.90
22738;DHT22;11536;50.860;4.286;2022-08-21T12:04:00;23.00;99.90
22738;DHT22;11536;50.860;4.286;2022-08-21T12:06:36;23.00;99.90
22738;DHT22;11536;50.860;4.286;2022-08-21T12:09:08;23.10;99.90
22738;DHT22;11536;50.860;4.286;2022-08-21T12:11:47;23.20;99.90
22738;DHT22;11536;50.860;4.286;2022-08-21T12:14:16;23.40;99.90
22738;DHT22;11536;50.860;4.286;2022-08-21T12:16:47;23.50;99.90
22738;DHT22;11536;50.860;4.286;2022-08-21T12:26:59;23.70;99.90
22738;DHT22;11536;50.860;4.286;2022-08-21T12:29:27;23.80;99.90
22738;DHT22;11536;50.860;4.286;2022-08-21T12:34:20;23.90;99.90
22738;DHT22;11536;50.860;4.286;2022-08-21T12:37:00;24.00;99.90
22738;DHT22;11536;50.860;4.286;2022-08-21T12:39:29;24.00;99.90
22738;DHT22;11536;50.860;4.286;2022-08-21T12:42:07;24.00;99.90
22738;DHT22;11536;50.860;4.286;2022-08-21T12:44:47;24.00;99.90
22738;DHT22;11536;50.860;4.286;2022-08-21T12:50:00;24.00;99.90
22738;DHT22;11536;50.860;4.286;2022-08-21T12:52:34;23.90;99.90
22738;DHT22;11536;50.860;4.286;2022-08-21T12:55:00;23.90;99.70
22738;DHT22;11536;50.860;4.286;2022-08-21T12:57:28;23.80;99.40
22738;DHT22;11536;50.860;4.286;2022-08-21T13:00:05;23.80;99.70
22738;DHT22;11536;50.860;4.286;2022-08-21T13:02:39;23.80;99.20
22738;DHT22;11536;50.860;4.286;2022-08-21T13:05:12;23.80;99.70
22738;DHT22;11536;50.860;4.286;2022-08-21T13:07:44;23.80;99.20
22738;DHT22;11536;50.860;4.286;2022-08-21T13:10:29;23.70;98.60
22738;DHT22;11536;50.860;4.286;2022-08-21T13:13:02;23.70;99.00
22738;DHT22;11536;50.860;4.286;2022-08-21T13:15:34;23.70;98.20
22738;DHT22;11536;50.860;4.286;2022-08-21T13:18:01;23.70;99.00
22738;DHT22;11536;50.860;4.286;2022-08-21T13:20:36;23.70;98.90
22738;DHT22;11536;50.860;4.286;2022-08-21T13:25:44;23.70;98.90
22738;DHT22;11536;50.860;4.286;2022-08-21T13:28:11;23.70;98.40
22738;DHT22;11536;50.860;4.286;2022-08-21T13:30:54;23.60;98.10
22738;DHT22;11536;50.860;4.286;2022-08-21T13:33:23;23.70;98.70
22738;DHT22;11536;50.860;4.286;2022-08-21T13:35:59;23.70;98.30
22738;DHT22;11536;50.860;4.286;2022-08-21T13:38:35;23.80;98.60
22738;DHT22;11536;50.860;4.286;2022-08-21T13:47:04;23.90;98.10
22738;DHT22;11536;50.860;4.286;2022-08-21T13:49:39;23.90;98.30
22738;DHT22;11536;50.860;4.286;2022-08-21T13:52:20;23.90;98.90
22738;DHT22;11536;50.860;4.286;2022-08-21T13:55:09;24.10;98.80
22738;DHT22;11536;50.860;4.286;2022-08-21T13:57:37;24.20;98.60
22738;DHT22;11536;50.860;4.286;2022-08-21T14:02:41;24.20;97.90
22738;DHT22;11536;50.860;4.286;2022-08-21T14:05:16;24.20;98.20
22738;DHT22;11536;50.860;4.286;2022-08-21T14:07:42;24.20;98.40
22738;DHT22;11536;50.860;4.286;2022-08-21T14:10:18;24.30;98.40
22738;DHT22;11536;50.860;4.286;2022-08-21T14:12:48;24.30;98.50
22738;DHT22;11536;50.860;4.286;2022-08-21T14:15:16;24.30;98.30
22738;DHT22;11536;50.860;4.286;2022-08-21T14:17:43;24.30;98.30
22738;DHT22;11536;50.860;4.286;2022-08-21T14:20:33;24.30;98.10
22738;DHT22;11536;50.860;4.286;2022-08-21T14:22:56;24.30;98.30
22738;DHT22;11536;50.860;4.286;2022-08-21T14:27:58;24.30;98.30
22738;DHT22;11536;50.860;4.286;2022-08-21T14:30:28;24.30;98.50
22738;DHT22;11536;50.860;4.286;2022-08-21T14:32:55;24.40;98.40
22738;DHT22;11536;50.860;4.286;2022-08-21T14:35:21;24.50;98.60
22738;DHT22;11536;50.860;4.286;2022-08-21T14:37:48;24.60;98.30
22738;DHT22;11536;50.860;4.286;2022-08-21T14:40:18;24.60;98.30
22738;DHT22;11536;50.860;4.286;2022-08-21T14:42:45;24.70;97.90
22738;DHT22;11536;50.860;4.286;2022-08-21T14:45:17;24.70;98.10
22738;DHT22;11536;50.860;4.286;2022-08-21T14:47:43;24.80;98.10
22738;DHT22;11536;50.860;4.286;2022-08-21T14:50:10;24.80;97.50
22738;DHT22;11536;50.860;4.286;2022-08-21T14:52:36;24.90;97.70
22738;DHT22;11536;50.860;4.286;2022-08-21T14:55:03;24.80;97.50
22738;DHT22;11536;50.860;4.286;2022-08-21T14:57:30;24.80;97.30
22738;DHT22;11536;50.860;4.286;2022-08-21T14:59:56;24.70;97.20
22738;DHT22;11536;50.860;4.286;2022-08-21T15:02:22;24.70;97.10
22738;DHT22;11536;50.860;4.286;2022-08-21T15:04:48;24.60;97.60
22738;DHT22;11536;50.860;4.286;2022-08-21T15:07:14;24.60;97.70
22738;DHT22;11536;50.860;4.286;2022-08-21T15:09:39;24.70;97.80
22738;DHT22;11536;50.860;4.286;2022-08-21T15:12:06;24.60;96.70
22738;DHT22;11536;50.860;4.286;2022-08-21T15:14:33;24.60;97.10
22738;DHT22;11536;50.860;4.286;2022-08-21T15:17:00;24.60;97.50
22738;DHT22;11536;50.860;4.286;2022-08-21T15:19:26;24.60;97.00
22738;DHT22;11536;50.860;4.286;2022-08-21T15:21:52;24.50;96.90
22738;DHT22;11536;50.860;4.286;2022-08-21T15:24:18;24.50;97.00
22738;DHT22;11536;50.860;4.286;2022-08-21T15:26:45;24.40;96.90
22738;DHT22;11536;50.860;4.286;2022-08-21T15:29:11;24.40;97.00
22738;DHT22;11536;50.860;4.286;2022-08-21T15:31:50;24.40;97.10
22738;DHT22;11536;50.860;4.286;2022-08-21T15:34:17;24.40;97.20
22738;DHT22;11536;50.860;4.286;2022-08-21T15:36:42;24.50;97.20
22738;DHT22;11536;50.860;4.286;2022-08-21T15:39:08;24.40;97.30
22738;DHT22;11536;50.860;4.286;2022-08-21T15:41:34;24.40;97.30
22738;DHT22;11536;50.860;4.286;2022-08-21T15:43:59;24.40;97.10
22738;DHT22;11536;50.860;4.286;2022-08-21T15:46:25;24.40;97.20
22738;DHT22;11536;50.860;4.286;2022-08-21T15:48:50;24.40;96.90
22738;DHT22;11536;50.860;4.286;2022-08-21T15:51:17;24.40;97.10
22738;DHT22;11536;50.860;4.286;2022-08-21T15:53:43;24.30;97.10
22738;DHT22;11536;50.860;4.286;2022-08-21T15:56:20;24.30;97.10
22738;DHT22;11536;50.860;4.286;2022-08-21T15:58:49;24.30;97.00
22738;DHT22;11536;50.860;4.286;2022-08-21T16:01:14;24.30;97.00
22738;DHT22;11536;50.860;4.286;2022-08-21T16:03:41;24.30;97.10
22738;DHT22;11536;50.860;4.286;2022-08-21T16:06:07;24.30;97.10
22738;DHT22;11536;50.860;4.286;2022-08-21T16:08:33;24.30;97.10
22738;DHT22;11536;50.860;4.286;2022-08-21T16:10:59;24.30;96.80
22738;DHT22;11536;50.860;4.286;2022-08-21T16:13:36;24.30;96.90
22738;DHT22;11536;50.860;4.286;2022-08-21T16:16:02;24.30;96.70
22738;DHT22;11536;50.860;4.286;2022-08-21T16:18:28;24.20;96.80
22738;DHT22;11536;50.860;4.286;2022-08-21T16:20:53;24.20;96.90
22738;DHT22;11536;50.860;4.286;2022-08-21T16:23:19;24.20;96.90
22738;DHT22;11536;50.860;4.286;2022-08-21T16:25:45;24.20;97.20
22738;DHT22;11536;50.860;4.286;2022-08-21T16:28:13;24.20;96.90
22738;DHT22;11536;50.860;4.286;2022-08-21T16:30:41;24.20;96.80
22738;DHT22;11536;50.860;4.286;2022-08-21T16:33:16;24.20;96.70
22738;DHT22;11536;50.860;4.286;2022-08-21T16:35:43;24.10;96.80
22738;DHT22;11536;50.860;4.286;2022-08-21T16:38:09;24.10;96.90
22738;DHT22;11536;50.860;4.286;2022-08-21T16:40:35;24.10;96.80
22738;DHT22;11536;50.860;4.286;2022-08-21T16:43:01;24.20;96.40
22738;DHT22;11536;50.860;4.286;2022-08-21T16:45:27;24.10;96.60
22738;DHT22;11536;50.860;4.286;2022-08-21T16:47:52;24.10;96.70
22738;DHT22;11536;50.860;4.286;2022-08-21T16:50:22;24.10;96.60
22738;DHT22;11536;50.860;4.286;2022-08-21T16:52:49;24.10;96.80
22738;DHT22;11536;50.860;4.286;2022-08-21T16:55:15;24.10;96.80
22738;DHT22;11536;50.860;4.286;2022-08-21T16:57:41;24.10;96.70
22738;DHT22;11536;50.860;4.286;2022-08-21T17:00:08;24.10;96.80
22738;DHT22;11536;50.860;4.286;2022-08-21T17:02:44;24.10;96.80
22738;DHT22;11536;50.860;4.286;2022-08-21T17:05:10;24.10;96.60
22738;DHT22;11536;50.860;4.286;2022-08-21T17:07:37;24.10;96.50
22738;DHT22;11536;50.860;4.286;2022-08-21T17:10:05;24.10;96.30
22738;DHT22;11536;50.860;4.286;2022-08-21T17:12:33;24.10;96.40
22738;DHT22;11536;50.860;4.286;2022-08-21T17:15:05;24.10;96.80